Terminal Aerodrome Forecast
Issued by NWS Indianapolis, IN

Home | Current Version | Previous Version | Text Only | Print | Product List | Glossary On
Versions: 1 2 3 4 5 6 7 8 9 10 11 12 13 14 15 16 17 18 19 20 21 22 23 24 25 26 27 28 29 30 31
740
FTUS43 KIND 291550 AAD
TAFIND
TAF AMD
KIND 291550Z 2916/3018 04010KT P6SM OVC007
     FM291800 11007KT P6SM VCSH BKN025
     FM300000 11007KT P6SM VCTS BKN060CB
     FM300500 14007KT P6SM VCTS BKN200CB WS020/20040KT
     FM300600 14007KT P6SM BKN150=

USA.gov is the U.S. government's official web portal to all federal, state and local government web resources and services.